createdAt,value
2018-09-26T00:01:24.539Z,2.10
2018-09-26T00:03:56.102Z,2.10
2018-09-26T00:06:24.886Z,2.30
2018-09-26T00:08:53.688Z,2.43
2018-09-26T00:11:22.494Z,2.60
2018-09-26T00:13:51.291Z,2.20
2018-09-26T00:16:20.105Z,1.70
2018-09-26T00:18:48.918Z,1.80
2018-09-26T00:21:17.704Z,2.37
2018-09-26T00:23:46.510Z,2.10
2018-09-26T00:26:15.294Z,1.67
2018-09-26T00:28:44.152Z,3.00
2018-09-26T00:31:12.947Z,1.50
2018-09-26T00:33:41.727Z,2.10
2018-09-26T00:36:10.613Z,1.97
2018-09-26T00:38:39.418Z,1.90
2018-09-26T00:41:08.191Z,2.10
2018-09-26T00:43:37.018Z,2.00
2018-09-26T00:46:06.415Z,2.30
2018-09-26T00:48:35.250Z,2.07
2018-09-26T00:51:04.416Z,2.13
2018-09-26T00:53:33.207Z,1.90
2018-09-26T00:56:02.319Z,1.80
2018-09-26T00:58:43.223Z,2.30
2018-09-26T01:01:12.168Z,1.97
2018-09-26T01:03:41.007Z,2.13
2018-09-26T01:06:09.818Z,1.90
2018-09-26T01:08:38.671Z,2.00
2018-09-26T01:11:07.611Z,2.10
2018-09-26T01:13:36.467Z,2.37
2018-09-26T01:16:05.406Z,2.70
2018-09-26T01:18:34.271Z,2.20
2018-09-26T01:21:03.113Z,1.80
2018-09-26T01:23:31.927Z,2.00
2018-09-26T01:26:00.748Z,2.27
2018-09-26T01:28:29.614Z,2.53
2018-09-26T01:30:58.458Z,1.83
2018-09-26T01:33:27.416Z,1.57
2018-09-26T01:35:56.203Z,1.87
2018-09-26T01:38:25.015Z,1.93
2018-09-26T01:40:53.806Z,1.67
2018-09-26T01:43:22.589Z,2.30
2018-09-26T01:45:51.378Z,2.10
2018-09-26T01:48:20.254Z,1.90
2018-09-26T01:50:49.074Z,1.80
2018-09-26T01:53:17.867Z,2.03
2018-09-26T01:55:46.716Z,2.60
2018-09-26T01:58:15.583Z,1.97
2018-09-26T02:00:44.396Z,1.50
2018-09-26T02:03:13.242Z,2.50
2018-09-26T02:05:42.026Z,1.67
2018-09-26T02:08:10.944Z,2.03
2018-09-26T02:10:39.751Z,2.00
2018-09-26T02:13:08.586Z,1.73
2018-09-26T02:15:37.399Z,1.60
2018-09-26T02:18:06.379Z,1.77
2018-09-26T02:20:35.211Z,2.37
2018-09-26T02:23:04.051Z,1.90
2018-09-26T02:25:32.938Z,2.00
2018-09-26T02:28:01.854Z,1.97
2018-09-26T02:30:30.667Z,2.13
2018-09-26T02:32:59.454Z,1.90
2018-09-26T02:35:28.291Z,2.20
2018-09-26T02:37:57.214Z,2.10
2018-09-26T02:40:26.075Z,1.67
2018-09-26T02:42:54.898Z,2.37
2018-09-26T02:45:23.808Z,1.70
2018-09-26T02:47:52.666Z,2.00
2018-09-26T02:50:21.480Z,1.93
2018-09-26T02:52:50.467Z,2.10
2018-09-26T02:55:19.259Z,2.07
2018-09-26T02:57:48.151Z,2.20
2018-09-26T03:00:18.307Z,2.03
2018-09-26T03:02:47.326Z,1.60
2018-09-26T03:05:16.114Z,1.53
2018-09-26T03:07:45.037Z,2.27
2018-09-26T03:10:13.942Z,1.90
2018-09-26T03:12:42.774Z,1.70
2018-09-26T03:15:11.611Z,2.73
2018-09-26T03:17:40.530Z,2.10
2018-09-26T03:20:09.422Z,1.90
2018-09-26T03:22:38.276Z,1.70
2018-09-26T03:25:07.271Z,2.30
2018-09-26T03:27:36.162Z,1.87
2018-09-26T03:30:05.084Z,1.90
2018-09-26T03:32:33.898Z,2.30
2018-09-26T03:35:02.737Z,2.93
2018-09-26T03:37:31.871Z,3.20
2018-09-26T03:40:00.683Z,3.70
2018-09-26T03:42:29.486Z,3.10
2018-09-26T03:44:58.284Z,2.70
2018-09-26T03:47:27.287Z,2.70
2018-09-26T03:49:56.083Z,2.00
2018-09-26T03:52:24.874Z,2.77
2018-09-26T03:54:53.698Z,2.53
2018-09-26T03:57:22.510Z,2.30
2018-09-26T03:59:51.331Z,2.40
2018-09-26T04:02:20.126Z,2.50
2018-09-26T04:04:48.985Z,2.70
2018-09-26T04:07:17.879Z,3.40
2018-09-26T04:09:46.712Z,2.90
2018-09-26T04:12:15.523Z,3.43
2018-09-26T04:14:44.315Z,2.83
2018-09-26T04:17:13.148Z,2.63
2018-09-26T04:19:42.132Z,2.83
2018-09-26T04:22:10.985Z,2.73
2018-09-26T04:24:39.787Z,2.77
2018-09-26T04:27:08.657Z,2.37
2018-09-26T04:29:37.451Z,2.67
2018-09-26T04:32:06.347Z,2.57
2018-09-26T04:34:35.178Z,2.60
2018-09-26T04:37:04.139Z,3.33
2018-09-26T04:39:32.954Z,2.60
2018-09-26T04:42:01.828Z,1.97
2018-09-26T04:44:30.630Z,2.83
2018-09-26T04:46:59.688Z,2.80
2018-09-26T04:49:28.510Z,3.30
2018-09-26T04:51:57.310Z,3.87
2018-09-26T04:54:26.139Z,2.43
2018-09-26T04:56:55.840Z,2.43
2018-09-26T04:59:29.827Z,2.60
2018-09-26T05:01:58.641Z,3.03
2018-09-26T05:04:27.501Z,2.47
2018-09-26T05:06:56.406Z,2.13
2018-09-26T05:09:25.206Z,2.93
2018-09-26T05:11:54.011Z,3.23
2018-09-26T05:14:22.835Z,3.13
2018-09-26T05:16:51.751Z,3.00
2018-09-26T05:19:20.553Z,2.80
2018-09-26T05:21:49.370Z,2.90
2018-09-26T05:24:18.143Z,3.10
2018-09-26T05:26:47.364Z,2.70
2018-09-26T05:29:16.178Z,2.80
2018-09-26T05:31:44.987Z,2.90
2018-09-26T05:34:13.799Z,2.20
2018-09-26T05:36:42.683Z,2.63
2018-09-26T05:39:12.136Z,3.40
2018-09-26T05:41:41.007Z,4.13
2018-09-26T05:44:09.795Z,3.93
2018-09-26T05:46:38.754Z,3.30
2018-09-26T05:49:07.582Z,3.50
2018-09-26T05:51:36.384Z,3.97
2018-09-26T05:54:05.204Z,2.93
2018-09-26T05:56:34.107Z,3.40
2018-09-26T05:59:03.035Z,2.90
2018-09-26T06:01:31.895Z,3.13
2018-09-26T06:04:00.686Z,2.57
2018-09-26T06:06:29.524Z,3.40
2018-09-26T06:08:58.353Z,3.30
2018-09-26T06:11:27.174Z,2.90
2018-09-26T06:13:56.056Z,3.17
2018-09-26T06:16:24.854Z,3.40
2018-09-26T06:18:53.695Z,3.07
2018-09-26T06:21:22.484Z,2.93
2018-09-26T06:23:51.307Z,3.40
2018-09-26T06:26:20.111Z,3.57
2018-09-26T06:28:48.962Z,3.30
2018-09-26T06:31:17.811Z,4.03
2018-09-26T06:33:46.778Z,3.30
2018-09-26T06:36:15.715Z,3.73
2018-09-26T06:38:44.527Z,3.37
2018-09-26T06:41:13.347Z,3.83
2018-09-26T06:43:42.136Z,3.60
2018-09-26T06:46:10.959Z,3.37
2018-09-26T06:48:39.939Z,3.10
2018-09-26T06:51:08.779Z,3.37
2018-09-26T06:53:37.575Z,3.27
2018-09-26T06:56:06.463Z,4.50
2018-09-26T06:58:35.311Z,3.27
2018-09-26T07:01:04.143Z,3.10
2018-09-26T07:03:32.947Z,3.10
2018-09-26T07:06:01.755Z,3.30
2018-09-26T07:08:30.611Z,2.93
2018-09-26T07:10:59.424Z,2.90
2018-09-26T07:13:28.245Z,3.50
2018-09-26T07:15:57.062Z,3.87
2018-09-26T07:18:25.995Z,3.53
2018-09-26T07:20:54.809Z,4.03
2018-09-26T07:23:23.719Z,3.60
2018-09-26T07:25:52.522Z,2.60
2018-09-26T07:28:21.415Z,3.27
2018-09-26T07:30:53.254Z,3.40
2018-09-26T07:33:22.035Z,3.50
2018-09-26T07:35:50.843Z,2.63
2018-09-26T07:38:19.763Z,3.43
2018-09-26T07:40:48.899Z,3.30
2018-09-26T07:43:17.734Z,3.20
2018-09-26T07:45:46.710Z,3.70
2018-09-26T07:48:15.550Z,2.87
2018-09-26T07:50:44.434Z,3.20
2018-09-26T07:53:13.306Z,2.30
2018-09-26T07:55:42.082Z,3.03
2018-09-26T07:58:10.987Z,2.63
2018-09-26T08:00:39.827Z,2.10
2018-09-26T08:03:08.762Z,2.53
2018-09-26T08:05:37.601Z,2.80
2018-09-26T08:08:06.415Z,3.20
2018-09-26T08:10:35.248Z,2.40
2018-09-26T08:13:04.071Z,2.90
2018-09-26T08:15:32.879Z,2.37
2018-09-26T08:18:01.797Z,2.30
2018-09-26T08:20:30.639Z,3.13
2018-09-26T08:22:59.447Z,2.23
2018-09-26T08:25:28.263Z,3.10
2018-09-26T08:27:57.075Z,3.20
2018-09-26T08:30:25.885Z,4.50
2018-09-26T08:32:54.702Z,4.70
2018-09-26T08:35:23.862Z,8.17
2018-09-26T08:37:52.727Z,2.93
2018-09-26T08:40:21.943Z,3.00
2018-09-26T08:42:50.764Z,5.30
2018-09-26T08:45:20.142Z,5.80
2018-09-26T08:47:49.116Z,6.60
2018-09-26T08:50:17.906Z,6.27
2018-09-26T08:52:46.690Z,3.43
2018-09-26T08:55:15.502Z,5.40
2018-09-26T08:57:44.327Z,3.70
2018-09-26T09:00:17.469Z,3.60
2018-09-26T09:02:46.506Z,3.33
2018-09-26T09:05:15.348Z,2.60
2018-09-26T09:07:44.175Z,6.40
2018-09-26T09:10:13.047Z,2.77
2018-09-26T09:12:41.839Z,2.80
2018-09-26T09:15:10.626Z,6.47
2018-09-26T09:17:39.551Z,3.70
2018-09-26T09:20:08.349Z,3.37
2018-09-26T09:22:37.235Z,1.70
2018-09-26T09:25:06.107Z,1.83
2018-09-26T09:27:34.925Z,1.90
2018-09-26T09:30:03.907Z,3.67
2018-09-26T09:32:39.456Z,4.87
2018-09-26T09:35:08.326Z,3.57
2018-09-26T09:37:37.194Z,5.53
2018-09-26T09:40:06.051Z,1.63
2018-09-26T09:42:34.881Z,2.83
2018-09-26T09:45:03.722Z,2.57
2018-09-26T09:47:32.610Z,2.43
2018-09-26T09:50:01.434Z,2.10
2018-09-26T09:52:30.262Z,2.43
2018-09-26T09:54:59.071Z,3.20
2018-09-26T09:57:27.946Z,1.80
2018-09-26T09:59:56.851Z,2.20
2018-09-26T10:02:25.744Z,2.20
2018-09-26T10:04:54.505Z,2.40
2018-09-26T10:07:23.326Z,5.10
2018-09-26T10:09:52.159Z,1.80
2018-09-26T10:12:20.970Z,1.93
2018-09-26T10:14:49.759Z,1.93
2018-09-26T10:17:18.610Z,1.60
2018-09-26T10:19:47.422Z,1.87
2018-09-26T10:22:16.259Z,2.33
2018-09-26T10:24:45.075Z,2.57
2018-09-26T10:27:13.947Z,1.77
2018-09-26T10:29:42.778Z,1.87
2018-09-26T10:32:11.699Z,1.80
2018-09-26T10:34:40.474Z,2.40
2018-09-26T10:37:09.303Z,2.80
2018-09-26T10:39:38.138Z,1.90
2018-09-26T10:42:07.030Z,2.00
2018-09-26T10:44:35.879Z,2.43
2018-09-26T10:47:04.788Z,2.17
2018-09-26T10:49:33.594Z,2.00
2018-09-26T10:52:02.422Z,1.70
2018-09-26T10:54:31.213Z,2.10
2018-09-26T10:57:00.104Z,1.70
2018-09-26T10:59:31.234Z,2.40
2018-09-26T11:02:00.036Z,2.87
2018-09-26T11:04:28.836Z,2.17
2018-09-26T11:06:57.675Z,1.83
2018-09-26T11:09:26.499Z,2.73
2018-09-26T11:11:55.303Z,2.27
2018-09-26T11:14:24.151Z,2.10
2018-09-26T11:16:52.971Z,1.93
2018-09-26T11:19:21.791Z,2.00
2018-09-26T11:21:50.613Z,2.50
2018-09-26T11:24:19.415Z,2.03
2018-09-26T11:26:48.447Z,2.30
2018-09-26T11:29:17.246Z,2.00
2018-09-26T11:31:46.051Z,3.43
2018-09-26T11:34:14.877Z,4.57
2018-09-26T11:36:43.682Z,2.90
2018-09-26T11:39:12.543Z,4.10
2018-09-26T11:41:41.307Z,1.87
2018-09-26T11:44:10.158Z,2.40
2018-09-26T11:46:38.932Z,2.87
2018-09-26T11:49:07.787Z,3.03
2018-09-26T11:51:36.581Z,2.30
2018-09-26T11:54:05.111Z,2.30
2018-09-26T11:56:33.903Z,1.90
2018-09-26T11:59:02.755Z,2.30
2018-09-26T12:01:31.573Z,1.90
2018-09-26T12:04:00.379Z,2.03
2018-09-26T12:06:29.214Z,2.10
2018-09-26T12:08:58.006Z,2.10
2018-09-26T12:11:26.930Z,2.90
2018-09-26T12:13:55.810Z,1.83
2018-09-26T12:16:24.586Z,2.27
2018-09-26T12:18:53.412Z,2.57
2018-09-26T12:21:30.443Z,4.23
2018-09-26T12:23:51.062Z,2.90
2018-09-26T12:26:19.872Z,2.00
2018-09-26T12:28:48.680Z,2.60
2018-09-26T12:31:17.482Z,3.10
2018-09-26T12:33:46.398Z,2.17
2018-09-26T12:36:15.307Z,3.10
2018-09-26T12:38:44.111Z,2.80
2018-09-26T12:41:13.039Z,3.10
2018-09-26T12:43:42.753Z,2.77
2018-09-26T12:46:11.610Z,3.13
2018-09-26T12:48:40.425Z,3.20
2018-09-26T12:51:09.226Z,2.60
2018-09-26T12:53:38.114Z,2.80
2018-09-26T12:56:06.934Z,3.37
2018-09-26T12:58:35.768Z,2.90
2018-09-26T13:01:04.587Z,2.67
2018-09-26T13:03:33.381Z,2.97
2018-09-26T13:06:02.174Z,3.20
2018-09-26T13:08:31.036Z,3.00
2018-09-26T13:10:59.878Z,3.50
2018-09-26T13:13:28.695Z,2.40
2018-09-26T13:15:57.727Z,2.57
2018-09-26T13:18:26.645Z,3.47
2018-09-26T13:20:55.401Z,4.10
2018-09-26T13:23:24.195Z,2.57
2018-09-26T13:25:52.990Z,2.20
2018-09-26T13:28:21.842Z,2.57
2018-09-26T13:30:50.856Z,2.40
2018-09-26T13:33:19.639Z,2.60
2018-09-26T13:35:48.439Z,3.30
2018-09-26T13:38:17.299Z,2.57
2018-09-26T13:40:46.115Z,3.20
2018-09-26T13:43:14.914Z,2.33
2018-09-26T13:45:43.757Z,2.33
2018-09-26T13:48:12.708Z,2.00
2018-09-26T13:50:41.513Z,1.90
2018-09-26T13:53:10.339Z,2.17
2018-09-26T13:55:39.166Z,2.67
2018-09-26T13:58:08.011Z,1.90
2018-09-26T14:00:36.812Z,2.47
2018-09-26T14:03:05.639Z,2.10
2018-09-26T14:05:34.450Z,2.00
2018-09-26T14:08:03.282Z,1.90
2018-09-26T14:10:32.087Z,2.20
2018-09-26T14:13:00.895Z,1.70
2018-09-26T14:15:29.756Z,2.00
2018-09-26T14:17:58.619Z,2.10
2018-09-26T14:20:27.436Z,5.10
2018-09-26T14:22:56.400Z,5.53
2018-09-26T14:25:25.145Z,3.03
2018-09-26T14:27:53.986Z,2.07
2018-09-26T14:30:22.870Z,2.10
2018-09-26T14:32:51.595Z,2.37
2018-09-26T14:35:20.405Z,1.87
2018-09-26T14:37:49.382Z,1.90
2018-09-26T14:40:18.210Z,1.90
2018-09-26T14:42:47.019Z,4.07
2018-09-26T14:45:15.930Z,2.70
2018-09-26T14:47:44.796Z,1.70
2018-09-26T14:50:13.672Z,1.80
2018-09-26T14:52:42.518Z,1.80
2018-09-26T14:55:11.321Z,2.10
2018-09-26T14:57:40.134Z,2.67
2018-09-26T15:00:11.158Z,3.87
2018-09-26T15:02:40.278Z,2.20
2018-09-26T15:05:09.097Z,5.90
2018-09-26T15:07:38.062Z,4.83
2018-09-26T15:10:07.847Z,3.10
2018-09-26T15:12:36.680Z,3.17
2018-09-26T15:15:05.641Z,2.67
2018-09-26T15:17:34.555Z,4.67
2018-09-26T15:20:03.715Z,4.37
2018-09-26T15:22:32.543Z,4.83
2018-09-26T15:25:01.350Z,4.10
2018-09-26T15:27:30.208Z,2.33
2018-09-26T15:29:59.041Z,2.27
2018-09-26T15:32:27.953Z,3.10
2018-09-26T15:34:56.711Z,10.80
2018-09-26T15:37:25.585Z,4.63
2018-09-26T15:39:54.436Z,3.20
2018-09-26T15:42:23.317Z,3.97
2018-09-26T15:44:52.046Z,4.10
2018-09-26T15:47:20.946Z,4.20
2018-09-26T15:49:49.735Z,3.77
2018-09-26T15:52:18.549Z,3.33
2018-09-26T15:54:47.351Z,2.87
2018-09-26T15:57:16.211Z,9.03
2018-09-26T15:59:45.023Z,6.10
2018-09-26T16:02:13.946Z,6.50
2018-09-26T16:04:42.811Z,4.73
2018-09-26T16:07:11.618Z,6.77
2018-09-26T16:09:40.525Z,6.30
2018-09-26T16:12:09.343Z,16.97
2018-09-26T16:14:38.255Z,13.50
2018-09-26T16:17:07.109Z,7.00
2018-09-26T16:19:35.943Z,22.53
2018-09-26T16:22:04.880Z,21.23
2018-09-26T16:24:33.682Z,13.50
2018-09-26T16:27:02.654Z,7.20
2018-09-26T16:29:31.739Z,4.30
2018-09-26T16:32:00.619Z,5.80
2018-09-26T16:34:29.407Z,4.20
2018-09-26T16:36:58.239Z,3.47
2018-09-26T16:39:27.193Z,2.60
2018-09-26T16:41:55.947Z,3.10
2018-09-26T16:44:24.837Z,3.37
2018-09-26T16:46:53.694Z,3.20
2018-09-26T16:49:22.548Z,2.70
2018-09-26T16:51:51.386Z,3.00
2018-09-26T16:54:20.225Z,3.13
2018-09-26T16:56:50.111Z,4.00
2018-09-26T16:59:27.162Z,3.30
2018-09-26T17:01:56.011Z,2.80
2018-09-26T17:04:25.007Z,2.63
2018-09-26T17:06:53.784Z,2.80
2018-09-26T17:09:22.612Z,3.80
2018-09-26T17:11:51.431Z,4.10
2018-09-26T17:14:20.357Z,3.33
2018-09-26T17:16:49.209Z,5.23
2018-09-26T17:19:18.144Z,4.30
2018-09-26T17:21:46.907Z,4.43
2018-09-26T17:24:15.757Z,4.40
2018-09-26T17:26:44.580Z,4.53
2018-09-26T17:29:13.413Z,3.77
2018-09-26T17:31:42.276Z,4.60
2018-09-26T17:34:14.067Z,3.50
2018-09-26T17:36:43.440Z,5.00
2018-09-26T17:39:12.640Z,4.53
2018-09-26T17:41:42.264Z,4.10
2018-09-26T17:44:11.143Z,4.80
2018-09-26T17:46:40.123Z,4.30
2018-09-26T17:49:10.047Z,4.03
2018-09-26T17:51:39.017Z,4.17
2018-09-26T17:54:07.881Z,4.07
2018-09-26T17:56:37.259Z,5.30
2018-09-26T17:59:08.869Z,5.03
2018-09-26T18:01:38.111Z,5.83
2018-09-26T18:04:06.993Z,5.37
2018-09-26T18:06:35.818Z,5.80
2018-09-26T18:09:09.054Z,5.23
2018-09-26T18:11:37.851Z,5.20
2018-09-26T18:14:06.863Z,6.23
2018-09-26T18:16:36.355Z,6.47
2018-09-26T18:19:06.195Z,6.63
2018-09-26T18:21:35.835Z,8.00
2018-09-26T18:24:04.738Z,6.37
2018-09-26T18:26:33.575Z,7.03
2018-09-26T18:29:02.449Z,6.30
2018-09-26T18:31:31.327Z,7.23
2018-09-26T18:34:00.187Z,6.90
2018-09-26T18:36:29.038Z,6.10
2018-09-26T18:38:58.342Z,6.50
2018-09-26T18:41:27.119Z,6.50
2018-09-26T18:43:56.518Z,6.67
2018-09-26T18:46:25.452Z,5.20
2018-09-26T18:48:54.319Z,5.63
2018-09-26T18:51:24.146Z,5.20
2018-09-26T18:53:53.054Z,5.33
2018-09-26T18:56:21.892Z,5.80
2018-09-26T18:58:50.782Z,5.57
2018-09-26T19:01:19.598Z,5.43
2018-09-26T19:03:48.436Z,5.60
2018-09-26T19:06:17.864Z,5.60
2018-09-26T19:08:47.455Z,5.53
2018-09-26T19:11:16.341Z,6.03
2018-09-26T19:13:45.767Z,6.17
2018-09-26T19:16:14.607Z,4.87
2018-09-26T19:18:44.966Z,5.20
2018-09-26T19:21:13.886Z,5.30
2018-09-26T19:23:43.471Z,6.40
2018-09-26T19:26:12.900Z,6.10
2018-09-26T19:28:42.587Z,6.20
2018-09-26T19:31:11.702Z,6.10
2018-09-26T19:33:42.119Z,6.90
2018-09-26T19:36:11.304Z,6.47
2018-09-26T19:38:40.260Z,5.60
2018-09-26T19:41:09.100Z,5.83
2018-09-26T19:43:38.706Z,5.50
2018-09-26T19:46:07.580Z,5.87
2018-09-26T19:48:37.476Z,6.30
2018-09-26T19:51:06.418Z,4.73
2018-09-26T19:53:35.227Z,5.07
2018-09-26T19:56:05.071Z,4.90
2018-09-26T19:58:33.951Z,5.67
2018-09-26T20:01:02.786Z,5.23
2018-09-26T20:03:31.606Z,5.27
2018-09-26T20:06:01.455Z,5.00
2018-09-26T20:08:30.377Z,4.63
2018-09-26T20:10:59.236Z,5.43
2018-09-26T20:13:28.100Z,5.30
2018-09-26T20:15:57.289Z,4.33
2018-09-26T20:18:26.175Z,4.90
2018-09-26T20:20:55.000Z,4.60
2018-09-26T20:23:24.745Z,5.03
2018-09-26T20:25:53.454Z,4.43
2018-09-26T20:28:22.933Z,4.80
2018-09-26T20:30:51.790Z,5.50
2018-09-26T20:33:21.786Z,4.47
2018-09-26T20:35:50.691Z,6.03
2018-09-26T20:38:19.576Z,5.83
2018-09-26T20:40:48.902Z,5.40
2018-09-26T20:43:17.791Z,4.50
2018-09-26T20:45:46.628Z,5.17
2018-09-26T20:48:15.536Z,5.17
2018-09-26T20:50:44.384Z,4.27
2018-09-26T20:53:19.887Z,3.70
2018-09-26T20:55:48.711Z,4.60
2018-09-26T20:58:17.550Z,4.30
2018-09-26T21:00:46.379Z,4.67
2018-09-26T21:03:15.980Z,4.77
2018-09-26T21:05:44.842Z,4.77
2018-09-26T21:08:13.707Z,4.80
2018-09-26T21:10:42.527Z,4.70
2018-09-26T21:13:11.349Z,4.70
2018-09-26T21:15:40.135Z,4.57
2018-09-26T21:18:09.131Z,4.50
2018-09-26T21:20:37.992Z,4.90
2018-09-26T21:23:06.943Z,4.10
2018-09-26T21:25:35.752Z,4.00
2018-09-26T21:28:04.635Z,4.67
2018-09-26T21:30:33.415Z,4.70
2018-09-26T21:33:02.196Z,4.60
2018-09-26T21:35:31.098Z,4.33
2018-09-26T21:37:59.907Z,4.40
2018-09-26T21:40:29.520Z,4.40
2018-09-26T21:42:58.326Z,3.97
2018-09-26T21:45:27.127Z,4.13
2018-09-26T21:47:55.963Z,4.50
2018-09-26T21:50:24.783Z,3.93
2018-09-26T21:52:53.615Z,4.40
2018-09-26T21:55:22.438Z,4.27
2018-09-26T21:57:51.431Z,4.20
2018-09-26T22:00:22.053Z,3.57
2018-09-26T22:02:53.555Z,3.30
2018-09-26T22:05:22.360Z,3.73
2018-09-26T22:07:51.251Z,3.70
2018-09-26T22:10:20.059Z,3.90
2018-09-26T22:12:48.858Z,4.23
2018-09-26T22:15:21.631Z,4.33
2018-09-26T22:17:51.186Z,4.23
2018-09-26T22:20:19.987Z,6.07
2018-09-26T22:22:49.114Z,4.63
2018-09-26T22:25:18.062Z,5.20
2018-09-26T22:27:47.366Z,4.90
2018-09-26T22:30:16.172Z,5.13
2018-09-26T22:32:44.990Z,4.60
2018-09-26T22:35:13.810Z,3.93
2018-09-26T22:37:42.676Z,5.73
2018-09-26T22:40:11.507Z,4.50
2018-09-26T22:42:40.299Z,4.97
2018-09-26T22:45:09.110Z,4.20
2018-09-26T22:47:37.935Z,4.87
2018-09-26T22:50:06.756Z,4.60
2018-09-26T22:52:35.562Z,4.10
2018-09-26T22:55:04.442Z,4.27
2018-09-26T22:57:33.318Z,4.97
2018-09-26T23:00:02.172Z,4.03
2018-09-26T23:02:31.614Z,4.13
2018-09-26T23:05:00.412Z,3.23
2018-09-26T23:07:29.233Z,4.13
2018-09-26T23:09:58.051Z,4.27
2018-09-26T23:12:26.855Z,3.77
2018-09-26T23:14:55.658Z,3.63
2018-09-26T23:17:24.535Z,3.87
2018-09-26T23:19:53.340Z,3.90
2018-09-26T23:22:22.165Z,4.00
2018-09-26T23:24:50.966Z,3.93
2018-09-26T23:27:19.779Z,3.73
2018-09-26T23:29:48.595Z,3.80
2018-09-26T23:32:17.394Z,3.47
2018-09-26T23:34:46.215Z,3.80
2018-09-26T23:37:15.870Z,3.33
2018-09-26T23:39:44.703Z,4.00
2018-09-26T23:42:13.471Z,4.00
2018-09-26T23:44:42.272Z,3.10
2018-09-26T23:47:11.291Z,4.10
2018-09-26T23:49:40.081Z,4.57
2018-09-26T23:52:08.859Z,2.80
2018-09-26T23:54:37.731Z,3.43
2018-09-26T23:57:06.715Z,3.63
2018-09-26T23:59:35.527Z,3.53
